x

West Santa Barbara 38 Nm West Of Santa Barbara, Ca (46054) Wave Buoy

12:50am - Tue 27th Jan 2015 All times are PST. -8 hours from GMT.

  • Sig Wave height 6.6ft
  • Swell Direction
  • Peak Period 14s
  • Average Period 9s
  • Wind
    13mph, 18mph gusts
  • Sea Temp 60°f
  • 空気 Temp 60°f
  • Sea Pressure 1018.4mb
  • West Santa Barbara  38 Nm West Of Santa Barbara, Ca
  • West Santa Barbara  38 Nm West Of Santa Barbara, Ca

More Historic Weather Station data

Upgrade to MSW Pro to gain access to the past 30 days of data for over 8000 Wavebouys and Weather Stations around the globe.

Join Pro

Comparision Forecast

View Surf forecast
   
Tue 01/27 12:50am 6.5ft 14s 9s 13 18 mph 1018.4mb 60f 60f
Mon 01/26 11:50pm 6.5ft 15s 8s 11 13 mph 1018.6mb 60f 60f
10:50pm 8ft 15s 9s 13 18 mph 1018.1mb 60f 60f
9:50pm 7ft 15s 10s 18 25 mph 1017.6mb 60f 61f
8:50pm 7.5ft 14s 11s 13 16 mph 1016.8mb 60f 62f
7:50pm 7ft 15s 11s 13 16 mph 1016.4mb 60f 62f
6:50pm 7ft 15s 12s 7 13 mph 1016.2mb 60f 63f
5:50pm 7.5ft 16s 12s 13 16 mph 1015.5mb 60f 64f
4:50pm 7ft 15s 12s 2 4 mph 1014.7mb 60f 61f
3:50pm 7ft 14s 12s 4 7 mph 1014.2mb 60f 61f
2:50pm 7ft 15s 12s 2 4 mph 1013.6mb 60f 61f
1:50pm 7ft 16s 12s 2 4 mph 1013.5mb 60f 62f
12:50pm 7ft 14s 12s 4
mph
1013.9mb 60f 62f
11:50am 6ft 16s 12s 2 4 mph 1014.7mb 60f 62f
10:50am 7ft 14s 12s 4 7 mph 1015.3mb 60f 61f
9:50am 6.5ft 13s 12s 7 13 mph 1015.7mb 60f 61f
8:50am 7ft 15s 12s 2 4 mph 1015.3mb 60f 60f
7:50am 7ft 14s 12s 2 4 mph 1015mb 60f 60f
6:50am 7.5ft 15s 12s 7 9 mph 1014.9mb 60f 61f
5:50am 6ft 15s 11s 7 9 mph 1014.4mb 60f 61f
4:50am 6ft 12s 11s 4 7 mph 1013.9mb 60f 60f
3:50am 6ft 16s 11s 4
mph
1014.1mb 60f 60f
2:50am 5.5ft 15s 11s 4 7 mph 1015.1mb 60f 63f
1:50am 6.5ft 15s 12s 4 7 mph 1015.3mb 60f 63f
12:50am 6.5ft 15s 11s 2 4 mph 1015.6mb 60f 63f
Sun 01/25 11:50pm 7ft 14s 12s 2 4 mph 1016.2mb 60f 65f
10:50pm 6.5ft 14s 11s 4 7 mph 1016.6mb 61f 63f
9:50pm 6.5ft 14s 11s 7
mph
1016mb 61f 64f
8:50pm 7.5ft 15s 12s 7 9 mph 1015.7mb 61f 62f
7:50pm 6.5ft 14s 10s 4 7 mph 1015.9mb 60f 65f
6:50pm 6.5ft 15s 10s 2 4 mph 1015.5mb 61f 64f
5:50pm 7ft 15s 11s 7 9 mph 1015mb 61f 63f
4:50pm 7.5ft 15s 11s 2 4 mph 1014.2mb 61f 64f
3:50pm 7ft 15s 11s 4 7 mph 1013.7mb 61f 64f
2:50pm 8.5ft 15s 12s 7 9 mph 1013.8mb 61f 64f
1:50pm 8ft 15s 12s 7 9 mph 1014.3mb 61f 72f
12:50pm 7.5ft 16s 11s 9 11 mph 1015.2mb 61f 67f
11:50am 8ft 15s 11s 4 9 mph 1016.3mb 60f 65f
10:50am 7ft 17s 11s 4 7 mph 1017.1mb 60f 64f
9:50am 8ft 16s 12s 4 7 mph 1017.2mb 60f 63f
8:50am 7.5ft 14s 11s 2 4 mph 1017.1mb 59f 61f
7:50am 8ft 15s 11s 4
mph
1016.7mb 59f 61f
6:50am 7ft 16s 11s 2 4 mph 1016.5mb 59f 60f
5:50am 8ft 16s 11s 2 4 mph 1016.1mb 59f 61f
4:50am 8.5ft 16s 12s 4
mph
1016.3mb 59f 60f
3:50am 9ft 15s 12s 2 4 mph 1016.4mb 60f 61f
2:50am 8ft 16s 11s 2 4 mph 1016.8mb 60f 60f
1:50am 10ft 16s 13s 4 7 mph 1016.7mb 60f 61f
12:50am 9ft 16s 12s 9 11 mph 1016.8mb 60f 61f
Sat 01/24 11:50pm 9ft 16s 12s 9 11 mph 1017.6mb 60f 61f
10:50pm 8ft 16s 11s 9 11 mph 1017.8mb 60f 62f
9:50pm 8ft 16s 11s 9 11 mph 1017.7mb 60f 62f
8:50pm 8.5ft 16s 10s 9 11 mph 1017.4mb 60f 63f
7:50pm 8ft 16s 10s 11 13 mph 1016.8mb 60f 63f
6:50pm 8.5ft 15s 10s 11 13 mph 1016.9mb 60f 62f
5:50pm 9.5ft 17s 11s 9 11 mph 1016.7mb 60f 62f
4:50pm 8ft 17s 9s 7 11 mph 1016.4mb 61f 62f
3:50pm 9ft 16s 11s 4 7 mph 1016.5mb 60f 62f
2:50pm 8ft 17s 11s 7 9 mph 1016.6mb 60f 62f
1:50pm 9ft 16s 12s 7 9 mph 1016.7mb 61f 62f
12:50pm 10ft 16s 13s 4 9 mph 1017.4mb 60f 63f
11:50am 10ft 17s 13s 4 7 mph 1018mb 60f 62f
10:50am 8.5ft 15s 11s 4 7 mph 1019.1mb 60f 62f
9:50am 10ft 17s 12s 9 11 mph 1019.7mb 60f 61f
8:50am 8.5ft 16s 11s 4 7 mph 1019.7mb 59f 62f
7:50am 11ft 17s 13s 4 7 mph 1019.6mb 59f 60f
6:50am 9ft 17s 12s 2 7 mph 1019.1mb 59f 59f
5:50am 10ft 17s 12s 2 4 mph 1018.9mb 59f 60f
4:50am 10ft 17s 13s 4 9 mph 1018.9mb 59f 60f
3:50am 9ft 17s 13s 4 7 mph 1019mb 59f 59f
2:50am 9ft 19s 13s 4
mph
1020mb 59f 59f
1:50am 10ft 19s 14s 4 9 mph 1020.2mb 59f 59f
12:50am 8ft 19s 12s 4
mph
1020.4mb 60f 59f
Fri 01/23 11:50pm 8ft 19s 12s 7 9 mph 1020.9mb 59f 59f
10:50pm 8.5ft 19s 12s 4 7 mph 1021mb 59f 59f
9:50pm 7.5ft 19s 12s 2
mph
1020.8mb 59f 60f
8:50pm 8ft 19s 12s 7 9 mph 1020.9mb 59f 60f
7:50pm 8ft 19s 12s 11
mph
1021mb 60f 60f
6:50pm 6.5ft 19s 11s 4 7 mph 1021.2mb 60f 60f
5:50pm 8ft 21s 12s 7
mph
1021.1mb 60f 60f
4:50pm 6.5ft 21s 11s 4 7 mph 1021.2mb 60f 61f
3:50pm 7ft 21s 11s 2 4 mph 1021.1mb 60f 61f
2:50pm 8ft 21s 12s 7 9 mph 1021.3mb 60f 60f
1:50pm 5.5ft 21s 10s 2 4 mph 1021.7mb 60f 61f
12:50pm 5.5ft 21s 10s 2
mph
1022.4mb 61f 61f
11:50am 5.5ft 21s 11s 2 4 mph 1023.3mb 61f 60f
10:50am 5.5ft 21s 10s 2 4 mph 1024.3mb 60f 60f